Silver City, Texas
Current Conditions -  °F | °C
As of 11:53 PM on Saturday 25 Oct 2014 (Local Time) from KCRS Reporting Station
Clear Clear  
Wind Chill: 68°   Ceiling: Unl
Heat Index: 68°   Visibility: 10mi
Dew Point: 61°   Wind: 7mph
Humidity: 78%   Direction: 180°S
Pressure: 30.08"   Gusts: NA
Location:  31.9458°N, 96.5713°W
Report Text: KCRS 260453Z AUTO 18006KT 10SM CLR 20/16 A3008 RMK AO2 SLP179 T02000161
Loading
Personal Weather Stations






























Interactive Weather Map
Tropical Storm Tracking
New forecast layout! Learn more

10-Day Weather Forecast

Advertisements
Track Severe Weather on mobile